createdAt,value
2023-04-20T00:00:29.767Z,5.65
2023-04-20T00:05:34.337Z,5.79
2023-04-20T00:10:37.504Z,5.90
2023-04-20T00:15:40.554Z,5.97
2023-04-20T00:20:44.927Z,6.01
2023-04-20T00:25:49.616Z,6.02
2023-04-20T00:30:52.679Z,6.01
2023-04-20T00:35:57.170Z,5.97
2023-04-20T00:41:00.552Z,5.91
2023-04-20T00:46:04.560Z,5.80
2023-04-20T00:51:09.592Z,5.72
2023-04-20T00:56:14.644Z,5.66
2023-04-20T01:01:18.278Z,5.64
2023-04-20T01:06:23.203Z,5.67
2023-04-20T01:11:26.240Z,5.67
2023-04-20T01:16:29.384Z,5.77
2023-04-20T01:21:33.845Z,5.84
2023-04-20T01:26:38.264Z,5.84
2023-04-20T01:31:41.460Z,5.83
2023-04-20T01:36:45.185Z,5.81
2023-04-20T01:41:49.613Z,5.82
2023-04-20T01:46:52.767Z,5.81
2023-04-20T01:51:55.902Z,5.77
2023-04-20T01:57:00.617Z,5.76
2023-04-20T02:02:03.700Z,5.70
2023-04-20T02:07:06.779Z,5.67
2023-04-20T02:12:11.690Z,5.59
2023-04-20T02:17:14.805Z,5.61
2023-04-20T02:22:18.008Z,5.46
2023-04-20T02:27:22.823Z,5.37
2023-04-20T02:32:26.413Z,5.38
2023-04-20T02:37:29.644Z,5.23
2023-04-20T02:42:34.398Z,5.08
2023-04-20T02:47:37.780Z,4.93
2023-04-20T02:52:41.226Z,4.77
2023-04-20T02:57:46.099Z,4.64
2023-04-20T03:02:49.636Z,4.48
2023-04-20T03:07:53.076Z,4.52
2023-04-20T03:12:57.825Z,4.45
2023-04-20T03:18:00.931Z,4.27
2023-04-20T03:23:04.074Z,4.33
2023-04-20T03:28:08.421Z,4.24
2023-04-20T03:33:11.733Z,4.18
2023-04-20T03:38:14.856Z,4.14
2023-04-20T03:43:19.238Z,4.17
2023-04-20T03:48:22.287Z,4.16
2023-04-20T03:53:25.539Z,4.11
2023-04-20T03:58:29.964Z,4.12
2023-04-20T04:03:34.245Z,4.11
2023-04-20T04:08:37.446Z,4.13
2023-04-20T04:13:41.818Z,4.09
2023-04-20T04:18:45.181Z,4.12
2023-04-20T04:23:48.233Z,4.15
2023-04-20T04:28:52.739Z,4.15
2023-04-20T04:33:56.686Z,4.02
2023-04-20T04:38:59.905Z,4.07
2023-04-20T04:44:05.857Z,4.04
2023-04-20T04:49:09.517Z,4.08
2023-04-20T04:54:12.954Z,4.08
2023-04-20T04:59:17.556Z,4.05
2023-04-20T05:04:20.920Z,4.05
2023-04-20T05:09:24.025Z,4.10
2023-04-20T05:14:28.678Z,4.13
2023-04-20T05:19:31.789Z,4.13
2023-04-20T05:24:35.119Z,4.16
2023-04-20T05:29:40.111Z,4.27
2023-04-20T05:34:43.143Z,4.25
2023-04-20T05:39:46.556Z,4.35
2023-04-20T05:44:51.148Z,4.31
2023-04-20T05:49:54.261Z,4.32
2023-04-20T05:54:57.314Z,4.51
2023-04-20T06:00:03.642Z,4.62
2023-04-20T06:05:09.256Z,4.66
2023-04-20T06:10:12.670Z,4.59
2023-04-20T06:15:17.239Z,4.59
2023-04-20T06:20:21.692Z,4.57
2023-04-20T06:25:25.635Z,4.79
2023-04-20T06:30:30.378Z,4.85
2023-04-20T06:35:33.435Z,5.01
2023-04-20T06:40:36.590Z,5.09
2023-04-20T06:45:41.495Z,5.19
2023-04-20T06:50:45.192Z,5.26
2023-04-20T06:55:48.262Z,5.29
2023-04-20T07:00:52.731Z,5.21
2023-04-20T07:05:55.872Z,5.42
2023-04-20T07:10:59.390Z,5.84
2023-04-20T07:16:04.501Z,5.90
2023-04-20T07:21:07.728Z,5.98
2023-04-20T07:26:11.209Z,5.90
2023-04-20T07:31:17.027Z,5.92
2023-04-20T07:36:22.349Z,5.83
2023-04-20T07:41:25.473Z,5.81
2023-04-20T07:46:29.924Z,5.79
2023-04-20T07:51:36.313Z,5.85
2023-04-20T07:56:39.690Z,6.04
2023-04-20T08:01:46.826Z,6.45
2023-04-20T08:06:50.257Z,6.46
2023-04-20T08:11:53.444Z,6.57
2023-04-20T08:16:58.288Z,6.71
2023-04-20T08:22:02.184Z,6.89
2023-04-20T08:27:06.633Z,7.48
2023-04-20T08:32:12.559Z,7.96
2023-04-20T08:37:15.710Z,8.84
2023-04-20T08:42:18.861Z,9.76
2023-04-20T08:47:29.341Z,10.93
2023-04-20T08:52:32.528Z,12.12
2023-04-20T08:57:35.702Z,11.95
2023-04-20T09:02:50.086Z,11.35
2023-04-20T09:07:53.707Z,10.69
2023-04-20T09:12:56.886Z,10.66
2023-04-20T09:18:12.816Z,10.52
2023-04-20T09:23:18.122Z,11.93
2023-04-20T09:28:21.826Z,13.56
2023-04-20T09:33:30.498Z,15.50
2023-04-20T09:38:33.653Z,15.60
2023-04-20T09:43:37.377Z,15.45
2023-04-20T09:48:42.521Z,14.98
2023-04-20T09:53:47.327Z,16.01
2023-04-20T09:58:51.713Z,16.26
2023-04-20T10:03:56.742Z,15.69
2023-04-20T10:09:02.825Z,16.40
2023-04-20T10:14:16.854Z,16.65
2023-04-20T10:19:21.517Z,18.61
2023-04-20T10:24:30.315Z,17.79
2023-04-20T10:29:34.506Z,15.30
2023-04-20T10:34:40.767Z,13.73
2023-04-20T10:39:46.726Z,13.11
2023-04-20T10:44:50.008Z,12.88
2023-04-20T10:49:54.396Z,13.35
2023-04-20T10:54:57.428Z,13.65
2023-04-20T11:00:00.604Z,12.46
2023-04-20T11:05:13.002Z,11.93
2023-04-20T11:10:16.374Z,11.12
2023-04-20T11:15:19.718Z,10.76
2023-04-20T11:20:24.069Z,10.96
2023-04-20T11:25:27.904Z,11.09
2023-04-20T11:30:42.320Z,10.96
2023-04-20T11:35:46.775Z,10.85
2023-04-20T11:40:49.884Z,11.54
2023-04-20T11:45:53.016Z,13.79
2023-04-20T11:50:57.572Z,15.32
2023-04-20T11:56:00.671Z,15.52
2023-04-20T12:01:04.793Z,14.80
2023-04-20T12:06:09.534Z,14.26
2023-04-20T12:11:12.614Z,14.34
2023-04-20T12:16:15.790Z,14.96
2023-04-20T12:21:20.217Z,14.22
2023-04-20T12:26:31.975Z,14.07
2023-04-20T12:31:40.345Z,14.81
2023-04-20T12:36:44.780Z,15.07
2023-04-20T12:41:47.839Z,15.83
2023-04-20T12:46:53.382Z,15.81
2023-04-20T12:51:57.858Z,14.95
2023-04-20T12:57:02.481Z,13.59
2023-04-20T13:02:05.823Z,12.90
2023-04-20T13:07:10.475Z,13.53
2023-04-20T13:12:13.744Z,13.75
2023-04-20T13:17:16.864Z,12.68
2023-04-20T13:22:21.256Z,12.12
2023-04-20T13:27:24.312Z,11.94
2023-04-20T13:32:27.367Z,11.61
2023-04-20T13:37:33.088Z,11.60
2023-04-20T13:42:36.151Z,11.68
2023-04-20T13:47:40.298Z,11.49
2023-04-20T13:52:44.730Z,11.00
2023-04-20T13:57:48.080Z,10.80
2023-04-20T14:02:51.322Z,10.16
2023-04-20T14:07:55.845Z,9.48
2023-04-20T14:13:00.379Z,9.32
2023-04-20T14:18:03.516Z,9.43
2023-04-20T14:23:09.562Z,9.60
2023-04-20T14:28:12.816Z,9.86
2023-04-20T14:33:15.872Z,10.00
2023-04-20T14:38:20.273Z,10.00
2023-04-20T14:43:24.250Z,9.70
2023-04-20T14:48:27.618Z,9.56
2023-04-20T14:53:33.103Z,9.46
2023-04-20T14:58:37.342Z,9.38
2023-04-20T15:03:40.835Z,9.33
2023-04-20T15:08:45.707Z,9.26
2023-04-20T15:13:49.400Z,8.97
2023-04-20T15:18:52.989Z,8.92
2023-04-20T15:23:57.369Z,8.80
2023-04-20T15:29:00.417Z,8.64
2023-04-20T15:34:03.762Z,8.61
2023-04-20T15:39:08.217Z,8.55
2023-04-20T15:44:11.294Z,8.42
2023-04-20T15:49:14.353Z,8.26
2023-04-20T15:54:19.641Z,8.24
2023-04-20T15:59:22.914Z,8.17
2023-04-20T16:04:26.236Z,8.16
2023-04-20T16:09:30.780Z,8.17
2023-04-20T16:14:34.349Z,8.08
2023-04-20T16:19:37.519Z,8.05
2023-04-20T16:24:41.948Z,8.08
2023-04-20T16:29:45.278Z,8.02
2023-04-20T16:34:48.683Z,8.04
2023-04-20T16:39:53.057Z,8.08
2023-04-20T16:44:56.509Z,8.07
2023-04-20T16:49:59.841Z,8.03
2023-04-20T16:55:04.461Z,8.04
2023-04-20T17:00:10.640Z,8.02
2023-04-20T17:05:13.730Z,8.01
2023-04-20T17:10:18.188Z,8.06
2023-04-20T17:15:21.323Z,7.98
2023-04-20T17:20:24.403Z,7.87
2023-04-20T17:25:29.804Z,7.78
2023-04-20T17:30:33.160Z,7.71
2023-04-20T17:35:38.144Z,7.61
2023-04-20T17:40:42.657Z,7.57
2023-04-20T17:45:45.792Z,7.50
2023-04-20T17:50:49.590Z,7.46
2023-04-20T17:55:53.991Z,7.39
2023-04-20T18:00:57.065Z,7.35
2023-04-20T18:06:00.590Z,7.37
2023-04-20T18:11:05.843Z,7.31
2023-04-20T18:16:09.486Z,7.23
2023-04-20T18:21:14.216Z,7.21
2023-04-20T18:26:20.288Z,7.15
2023-04-20T18:31:23.353Z,7.12
2023-04-20T18:36:26.825Z,7.02
2023-04-20T18:41:31.186Z,6.93
2023-04-20T18:46:34.324Z,6.94
2023-04-20T18:51:37.941Z,6.80
2023-04-20T18:56:42.555Z,6.77
2023-04-20T19:01:46.046Z,6.71
2023-04-20T19:06:49.180Z,6.69
2023-04-20T19:11:53.672Z,6.69
2023-04-20T19:16:56.791Z,6.68
2023-04-20T19:22:00.546Z,6.66
2023-04-20T19:27:05.383Z,6.68
2023-04-20T19:32:08.532Z,6.66
2023-04-20T19:37:11.882Z,6.65
2023-04-20T19:42:16.289Z,6.65
2023-04-20T19:47:20.229Z,6.60
2023-04-20T19:52:23.390Z,6.60
2023-04-20T19:57:27.949Z,6.61
2023-04-20T20:02:31.136Z,6.62
2023-04-20T20:07:34.877Z,6.59
2023-04-20T20:12:40.120Z,6.61
2023-04-20T20:17:45.317Z,6.62
2023-04-20T20:22:50.226Z,6.59
2023-04-20T20:27:54.657Z,6.58
2023-04-20T20:32:59.335Z,6.59
2023-04-20T20:38:06.114Z,6.63
2023-04-20T20:43:10.909Z,6.63
2023-04-20T20:48:14.361Z,6.63
2023-04-20T20:53:20.495Z,6.68
2023-04-20T20:58:25.070Z,6.65
2023-04-20T21:03:28.360Z,6.69
2023-04-20T21:08:31.722Z,6.67
2023-04-20T21:13:36.259Z,6.65
2023-04-20T21:18:39.340Z,6.66
2023-04-20T21:23:42.337Z,6.67
2023-04-20T21:28:46.693Z,6.68
2023-04-20T21:33:49.739Z,6.67
2023-04-20T21:38:54.750Z,6.68
2023-04-20T21:43:59.189Z,6.66
2023-04-20T21:49:02.437Z,6.68
2023-04-20T21:54:05.788Z,6.68
2023-04-20T21:59:10.204Z,6.71
2023-04-20T22:04:13.857Z,6.68
2023-04-20T22:09:17.861Z,6.67
2023-04-20T22:14:22.461Z,6.72
2023-04-20T22:19:25.835Z,6.75
2023-04-20T22:24:28.867Z,6.70
2023-04-20T22:29:33.733Z,6.72
2023-04-20T22:34:37.139Z,6.72
2023-04-20T22:39:40.541Z,6.72
2023-04-20T22:44:45.945Z,6.80
2023-04-20T22:49:50.981Z,6.82
2023-04-20T22:54:54.028Z,6.80
2023-04-20T22:59:58.381Z,6.81
2023-04-20T23:05:01.423Z,6.84
2023-04-20T23:10:06.036Z,6.82
2023-04-20T23:15:11.621Z,6.84
2023-04-20T23:20:15.086Z,6.80
2023-04-20T23:25:18.336Z,6.82
2023-04-20T23:30:22.862Z,6.83
2023-04-20T23:35:25.882Z,6.80
2023-04-20T23:40:29.069Z,6.80
2023-04-20T23:45:33.465Z,6.82
2023-04-20T23:50:37.252Z,6.83
2023-04-20T23:55:40.852Z,6.83
